createdAt,value
2019-04-23T00:00:20.509Z,15.50
2019-04-23T00:02:58.787Z,15.40
2019-04-23T00:08:11.459Z,15.30
2019-04-23T00:10:36.720Z,15.40
2019-04-23T00:13:04.196Z,15.40
2019-04-23T00:16:10.810Z,15.30
2019-04-23T00:18:37.710Z,15.50
2019-04-23T00:21:13.830Z,15.50
2019-04-23T00:23:49.845Z,15.50
2019-04-23T00:28:51.966Z,15.10
2019-04-23T00:31:18.296Z,15.40
2019-04-23T00:33:40.880Z,15.30
2019-04-23T00:36:19.423Z,15.40
2019-04-23T00:38:45.554Z,15.30
2019-04-23T00:41:16.425Z,15.30
2019-04-23T00:43:48.760Z,15.30
2019-04-23T00:46:22.411Z,15.10
2019-04-23T00:48:52.186Z,15.00
2019-04-23T00:51:17.667Z,15.20
2019-04-23T00:54:06.400Z,15.10
2019-04-23T01:01:18.062Z,15.30
2019-04-23T01:03:53.065Z,15.30
2019-04-23T01:08:50.736Z,15.40
2019-04-23T01:16:24.784Z,15.00
2019-04-23T01:18:58.201Z,14.90
2019-04-23T01:21:24.455Z,14.90
2019-04-23T01:24:23.987Z,14.90
2019-04-23T01:27:51.383Z,14.80
2019-04-23T01:35:15.174Z,14.60
2019-04-23T01:37:36.508Z,14.70
2019-04-23T01:42:40.477Z,14.80
2019-04-23T01:45:15.053Z,14.90
2019-04-23T01:47:38.602Z,14.90
2019-04-23T01:50:14.344Z,15.00
2019-04-23T01:52:45.559Z,14.80
2019-04-23T01:55:15.257Z,14.80
2019-04-23T02:00:16.128Z,14.90
2019-04-23T02:02:43.109Z,14.70
2019-04-23T02:05:19.347Z,14.90
2019-04-23T02:10:21.945Z,14.60
2019-04-23T02:12:53.612Z,14.50
2019-04-23T02:15:18.073Z,14.50
2019-04-23T02:17:47.863Z,14.40
2019-04-23T02:20:23.866Z,14.50
2019-04-23T02:23:30.066Z,14.40
2019-04-23T02:25:49.044Z,14.40
2019-04-23T02:28:12.007Z,14.40
2019-04-23T02:30:59.837Z,14.20
2019-04-23T02:33:29.542Z,14.30
2019-04-23T02:38:42.904Z,14.20
2019-04-23T02:50:45.141Z,14.10
2019-04-23T02:53:48.218Z,14.00
2019-04-23T02:58:28.141Z,13.80
2019-04-23T03:01:19.366Z,14.00
2019-04-23T03:05:57.340Z,13.90
2019-04-23T03:11:18.335Z,13.70
2019-04-23T03:13:44.557Z,13.90
2019-04-23T03:16:19.941Z,13.70
2019-04-23T03:19:09.881Z,13.70
2019-04-23T03:22:00.214Z,13.80
2019-04-23T03:24:45.827Z,13.60
2019-04-23T03:42:12.019Z,13.60
2019-04-23T03:44:49.236Z,13.70
2019-04-23T03:47:18.722Z,13.60
2019-04-23T03:49:47.424Z,13.70
2019-04-23T03:52:24.909Z,13.40
2019-04-23T03:54:54.367Z,13.60
2019-04-23T03:57:18.316Z,13.40
2019-04-23T04:00:03.442Z,13.40
2019-04-23T04:02:37.678Z,13.50
2019-04-23T04:05:12.577Z,13.40
2019-04-23T04:10:05.282Z,13.40
2019-04-23T04:15:21.305Z,13.50
2019-04-23T04:17:35.959Z,13.30
2019-04-23T04:20:19.657Z,13.50
2019-04-23T04:25:14.482Z,13.50
2019-04-23T04:27:54.117Z,13.40
2019-04-23T04:32:59.119Z,13.50
2019-04-23T04:37:56.011Z,13.50
2019-04-23T04:45:30.347Z,13.60
2019-04-23T04:50:28.453Z,13.60
2019-04-23T04:55:21.487Z,13.70
2019-04-23T04:57:58.030Z,13.80
2019-04-23T05:07:54.901Z,13.50
2019-04-23T05:15:28.520Z,13.60
2019-04-23T05:20:52.969Z,13.70
2019-04-23T05:25:52.873Z,13.60
2019-04-23T05:28:29.961Z,13.60
2019-04-23T05:33:21.917Z,13.40
2019-04-23T05:38:46.620Z,13.40
2019-04-23T05:41:10.414Z,13.50
2019-04-23T05:43:35.807Z,13.60
2019-04-23T05:46:07.275Z,13.60
2019-04-23T05:48:33.405Z,13.40
2019-04-23T05:51:04.329Z,14.00
2019-04-23T05:53:37.368Z,13.60
2019-04-23T05:56:01.788Z,13.50
2019-04-23T05:58:37.167Z,13.50
2019-04-23T06:06:37.768Z,13.70
2019-04-23T06:09:12.730Z,13.70
2019-04-23T06:11:49.202Z,13.60
2019-04-23T06:14:23.690Z,13.80
2019-04-23T06:16:49.489Z,13.70
2019-04-23T06:19:07.696Z,13.60
2019-04-23T06:21:55.745Z,13.60
2019-04-23T06:29:22.502Z,13.40
2019-04-23T06:34:20.236Z,13.30
2019-04-23T06:36:44.483Z,13.30
2019-04-23T06:39:26.646Z,13.30
2019-04-23T06:41:49.964Z,13.20
2019-04-23T06:44:32.318Z,13.30
2019-04-23T06:47:03.553Z,13.40
2019-04-23T06:49:35.509Z,13.30
2019-04-23T06:57:10.678Z,13.50
2019-04-23T06:59:34.066Z,13.40
2019-04-23T07:02:09.551Z,13.30
2019-04-23T07:04:36.071Z,13.40
2019-04-23T07:07:29.348Z,13.30
2019-04-23T07:09:27.706Z,13.50
2019-04-23T07:12:08.522Z,13.50
2019-04-23T07:17:08.614Z,13.60
2019-04-23T07:19:42.207Z,13.70
2019-04-23T07:25:03.141Z,13.60
2019-04-23T07:27:13.617Z,13.50
2019-04-23T07:29:52.780Z,13.50
2019-04-23T07:32:11.841Z,13.60
2019-04-23T07:34:51.199Z,13.70
2019-04-23T07:37:17.665Z,13.60
2019-04-23T07:40:27.675Z,13.70
2019-04-23T07:43:18.363Z,13.70
2019-04-23T07:46:10.541Z,13.70
2019-04-23T07:48:32.091Z,13.70
2019-04-23T07:51:00.509Z,13.70
2019-04-23T07:53:44.349Z,13.60
2019-04-23T07:56:18.730Z,13.60
2019-04-23T07:58:58.415Z,13.70
2019-04-23T08:01:11.250Z,13.70
2019-04-23T08:03:43.905Z,13.70
2019-04-23T08:06:12.044Z,13.60
2019-04-23T08:08:49.140Z,13.60
2019-04-23T08:16:29.436Z,13.60
2019-04-23T08:21:21.157Z,13.60
2019-04-23T08:26:50.823Z,13.70
2019-04-23T08:29:28.054Z,13.60
2019-04-23T08:31:52.826Z,13.60
2019-04-23T08:34:34.461Z,13.60
2019-04-23T08:36:57.635Z,13.50
2019-04-23T08:39:28.666Z,13.50
2019-04-23T08:45:06.955Z,13.60
2019-04-23T08:47:27.634Z,13.50
2019-04-23T08:54:51.960Z,13.30
2019-04-23T08:57:17.146Z,13.20
2019-04-23T09:04:54.197Z,13.30
2019-04-23T09:09:50.878Z,13.30
2019-04-23T09:12:25.394Z,13.30
2019-04-23T09:14:53.861Z,13.20
2019-04-23T09:17:27.395Z,13.40
2019-04-23T09:22:28.347Z,13.30
2019-04-23T09:25:03.962Z,13.40
2019-04-23T09:32:56.522Z,13.20
2019-04-23T09:35:30.885Z,13.00
2019-04-23T09:38:28.582Z,13.10
2019-04-23T09:41:27.689Z,13.10
2019-04-23T09:44:27.654Z,13.00
2019-04-23T09:49:47.298Z,13.00
2019-04-23T09:52:20.066Z,13.00
2019-04-23T09:57:16.045Z,13.00
2019-04-23T09:59:49.867Z,13.00
2019-04-23T10:02:13.165Z,13.00
2019-04-23T10:04:39.796Z,13.10
2019-04-23T10:07:07.207Z,13.00
2019-04-23T10:09:27.430Z,13.10
2019-04-23T10:11:55.608Z,13.10
2019-04-23T10:14:24.331Z,13.00
2019-04-23T10:16:53.383Z,13.00
2019-04-23T10:19:22.593Z,13.00
2019-04-23T10:21:53.254Z,13.00
2019-04-23T10:24:23.299Z,13.10
2019-04-23T10:26:52.310Z,13.00
2019-04-23T10:29:25.764Z,13.10
2019-04-23T10:31:55.902Z,13.00
2019-04-23T10:34:25.314Z,13.20
2019-04-23T10:36:55.628Z,13.20
2019-04-23T10:39:30.433Z,13.10
2019-04-23T10:41:56.985Z,13.00
2019-04-23T10:44:38.034Z,13.20
2019-04-23T10:47:55.313Z,13.10
2019-04-23T10:51:05.623Z,13.10
2019-04-23T10:53:45.863Z,13.20
2019-04-23T10:56:00.708Z,13.20
2019-04-23T11:01:05.074Z,13.10
2019-04-23T11:06:21.397Z,13.20
2019-04-23T11:09:07.870Z,13.20
2019-04-23T11:11:27.646Z,13.20
2019-04-23T11:14:01.199Z,13.10
2019-04-23T11:19:15.443Z,13.20
2019-04-23T11:21:32.793Z,13.20
2019-04-23T11:24:12.708Z,13.30
2019-04-23T11:26:34.446Z,13.20
2019-04-23T11:29:00.213Z,13.20
2019-04-23T11:31:41.546Z,13.30
2019-04-23T11:34:11.762Z,13.40
2019-04-23T11:41:57.818Z,13.40
2019-04-23T11:44:23.678Z,13.30
2019-04-23T11:46:53.478Z,13.30
2019-04-23T11:52:21.179Z,13.30
2019-04-23T11:54:38.954Z,13.30
2019-04-23T12:02:38.867Z,13.30
2019-04-23T12:08:18.160Z,13.20
2019-04-23T12:13:41.270Z,13.10
2019-04-23T12:18:34.842Z,13.30
2019-04-23T12:21:33.513Z,13.30
2019-04-23T12:24:10.682Z,13.40
2019-04-23T12:26:39.031Z,13.40
2019-04-23T12:29:42.359Z,13.40
2019-04-23T12:37:55.180Z,13.20
2019-04-23T12:40:27.551Z,13.30
2019-04-23T12:45:27.427Z,13.30
2019-04-23T12:47:56.287Z,13.40
2019-04-23T12:53:07.131Z,13.40
2019-04-23T12:57:50.684Z,13.30
2019-04-23T13:00:30.854Z,13.60
2019-04-23T13:02:57.138Z,13.50
2019-04-23T13:05:28.749Z,13.50
2019-04-23T13:08:08.632Z,13.50
2019-04-23T13:11:40.771Z,13.50
2019-04-23T13:14:30.470Z,13.60
2019-04-23T13:17:05.565Z,13.60
2019-04-23T13:19:39.499Z,13.60
2019-04-23T13:22:21.506Z,13.70
2019-04-23T13:24:43.721Z,13.80
2019-04-23T13:27:23.845Z,13.70
2019-04-23T13:29:51.756Z,13.60
2019-04-23T13:32:21.555Z,13.70
2019-04-23T13:37:23.409Z,13.60
2019-04-23T13:39:51.919Z,13.60
2019-04-23T13:42:33.680Z,13.50
2019-04-23T13:44:57.517Z,13.60
2019-04-23T13:47:38.510Z,13.50
2019-04-23T13:49:57.218Z,13.40
2019-04-23T13:53:02.106Z,13.50
2019-04-23T13:55:02.886Z,13.40
2019-04-23T13:57:59.306Z,13.40
2019-04-23T13:59:57.445Z,13.50
2019-04-23T14:02:40.435Z,13.40
2019-04-23T14:05:26.534Z,13.30
2019-04-23T14:07:59.580Z,13.30
2019-04-23T14:13:24.117Z,13.40
2019-04-23T14:15:42.806Z,13.30
2019-04-23T14:18:29.446Z,13.30
2019-04-23T14:20:34.915Z,13.40
2019-04-23T14:23:27.698Z,13.30
2019-04-23T14:25:47.950Z,13.20
2019-04-23T14:28:17.551Z,13.20
2019-04-23T14:30:46.778Z,13.40
2019-04-23T14:33:11.772Z,13.40
2019-04-23T14:35:40.308Z,13.30
2019-04-23T14:46:25.102Z,13.40
2019-04-23T14:48:23.600Z,13.40
2019-04-23T14:51:00.343Z,13.40
2019-04-23T14:53:43.980Z,13.30
2019-04-23T14:58:59.889Z,13.40
2019-04-23T15:06:26.114Z,13.40
2019-04-23T15:08:51.454Z,13.40
2019-04-23T15:13:45.687Z,13.50
2019-04-23T15:16:39.142Z,13.50
2019-04-23T15:19:11.209Z,13.50
2019-04-23T15:21:47.244Z,13.40
2019-04-23T15:24:23.501Z,13.30
2019-04-23T15:28:45.469Z,13.40
2019-04-23T15:31:41.270Z,13.40
2019-04-23T15:46:46.975Z,13.30
2019-04-23T15:56:52.902Z,13.30
2019-04-23T15:59:21.029Z,13.30
2019-04-23T16:01:40.323Z,13.30
2019-04-23T16:03:51.338Z,13.30
2019-04-23T16:06:24.519Z,13.50
2019-04-23T16:09:12.702Z,13.30
2019-04-23T16:14:26.221Z,13.30
2019-04-23T16:17:09.940Z,13.40
2019-04-23T16:19:43.673Z,13.40
2019-04-23T16:22:26.833Z,13.50
2019-04-23T16:24:50.331Z,13.40
2019-04-23T16:27:11.135Z,13.40
2019-04-23T16:30:03.555Z,13.40
2019-04-23T16:32:28.314Z,13.40
2019-04-23T16:35:15.668Z,13.30
2019-04-23T16:37:38.902Z,13.40
2019-04-23T16:40:13.916Z,13.50
2019-04-23T16:42:38.260Z,13.30
2019-04-23T16:45:13.089Z,13.30
2019-04-23T16:47:43.255Z,13.40
2019-04-23T16:50:11.414Z,13.30
2019-04-23T16:52:32.661Z,13.20
2019-04-23T16:55:07.052Z,13.20
2019-04-23T16:57:45.874Z,13.20
2019-04-23T17:00:24.684Z,13.10
2019-04-23T17:02:48.515Z,13.20
2019-04-23T17:07:54.015Z,13.20
2019-04-23T17:10:16.060Z,13.20
2019-04-23T17:12:46.289Z,13.20
2019-04-23T17:17:46.946Z,13.20
2019-04-23T17:20:16.075Z,13.20
2019-04-23T17:22:47.995Z,13.20
2019-04-23T17:27:48.582Z,13.20
2019-04-23T17:30:26.331Z,13.20
2019-04-23T17:33:07.875Z,13.30
2019-04-23T17:38:20.763Z,13.20
2019-04-23T17:41:13.538Z,13.20
2019-04-23T17:43:42.325Z,13.20
2019-04-23T17:46:05.664Z,13.10
2019-04-23T17:48:34.730Z,13.10
2019-04-23T17:54:06.571Z,13.20
2019-04-23T17:56:40.549Z,13.20
2019-04-23T17:58:52.542Z,13.20
2019-04-23T18:04:06.591Z,13.20
2019-04-23T18:11:31.891Z,13.00
2019-04-23T18:16:41.162Z,13.10
2019-04-23T18:19:15.055Z,13.10
2019-04-23T18:22:06.985Z,13.10
2019-04-23T18:24:59.547Z,13.20
2019-04-23T18:27:31.003Z,13.20
2019-04-23T18:30:15.741Z,13.20
2019-04-23T18:33:43.320Z,13.20
2019-04-23T18:35:35.694Z,13.20
2019-04-23T18:41:02.114Z,13.20
2019-04-23T18:43:30.880Z,13.30
2019-04-23T18:46:08.240Z,13.40
2019-04-23T18:48:50.092Z,13.40
2019-04-23T18:51:26.701Z,13.30
2019-04-23T18:54:07.703Z,13.40
2019-04-23T18:56:56.044Z,13.50
2019-04-23T18:59:12.705Z,13.40
2019-04-23T19:02:05.164Z,13.40
2019-04-23T19:05:03.582Z,13.40
2019-04-23T19:07:32.151Z,13.30
2019-04-23T19:10:33.704Z,13.40
2019-04-23T19:13:09.569Z,13.50
2019-04-23T19:15:42.318Z,13.30
2019-04-23T19:18:19.102Z,13.40
2019-04-23T19:23:32.586Z,13.40
2019-04-23T19:25:54.661Z,13.40
2019-04-23T19:31:16.317Z,13.60
2019-04-23T19:33:55.015Z,13.70
2019-04-23T19:36:33.788Z,13.70
2019-04-23T19:38:55.840Z,13.70
2019-04-23T19:41:39.416Z,13.70
2019-04-23T19:44:06.328Z,13.60
2019-04-23T19:46:48.986Z,13.50
2019-04-23T19:49:09.667Z,13.60
2019-04-23T19:51:52.395Z,13.40
2019-04-23T19:54:30.151Z,13.40
2019-04-23T19:56:55.090Z,13.50
2019-04-23T19:59:31.599Z,13.50
2019-04-23T20:02:00.245Z,13.50
2019-04-23T20:04:39.313Z,13.60
2019-04-23T20:07:20.091Z,13.60
2019-04-23T20:12:06.467Z,13.60
2019-04-23T20:14:50.467Z,13.50
2019-04-23T20:17:31.359Z,13.60
2019-04-23T20:19:48.608Z,13.60
2019-04-23T20:22:33.944Z,13.60
2019-04-23T20:27:26.500Z,13.60
2019-04-23T20:30:33.245Z,13.70
2019-04-23T20:32:06.205Z,13.70
2019-04-23T20:35:48.448Z,13.70
2019-04-23T20:43:25.579Z,13.70
2019-04-23T20:46:10.754Z,13.70
2019-04-23T20:49:00.834Z,13.80
2019-04-23T20:51:41.277Z,13.60
2019-04-23T20:54:09.208Z,13.70
2019-04-23T20:56:56.102Z,13.70
2019-04-23T20:59:30.173Z,13.70
2019-04-23T21:02:13.634Z,13.70
2019-04-23T21:04:57.271Z,13.70
2019-04-23T21:07:31.203Z,13.70
2019-04-23T21:10:00.947Z,13.70
2019-04-23T21:12:42.721Z,13.80
2019-04-23T21:17:55.815Z,13.70
2019-04-23T21:20:16.184Z,13.70
2019-04-23T21:22:41.459Z,13.80
2019-04-23T21:25:09.710Z,13.80
2019-04-23T21:33:37.372Z,13.60
2019-04-23T21:39:10.055Z,13.70
2019-04-23T21:49:16.482Z,13.70
2019-04-23T21:53:58.868Z,13.80
2019-04-23T22:01:50.082Z,13.60
2019-04-23T22:04:36.610Z,13.70
2019-04-23T22:09:35.339Z,13.80
2019-04-23T22:14:17.002Z,13.80
2019-04-23T22:16:55.702Z,13.80
2019-04-23T22:24:46.395Z,13.70
2019-04-23T22:26:56.614Z,13.80
2019-04-23T22:29:36.045Z,13.80
2019-04-23T22:32:12.365Z,13.90
2019-04-23T22:39:39.863Z,14.00
2019-04-23T22:42:22.311Z,13.90
2019-04-23T22:44:50.919Z,13.90
2019-04-23T22:49:51.328Z,13.90
2019-04-23T22:52:21.648Z,13.90
2019-04-23T22:54:57.147Z,13.90
2019-04-23T22:57:09.001Z,13.90
2019-04-23T23:00:04.422Z,14.00
2019-04-23T23:02:59.466Z,14.00
2019-04-23T23:05:12.284Z,14.10
2019-04-23T23:12:51.297Z,14.10
2019-04-23T23:18:02.091Z,14.10
2019-04-23T23:22:57.086Z,14.00
2019-04-23T23:25:23.904Z,14.10
2019-04-23T23:27:58.941Z,14.00
2019-04-23T23:30:19.478Z,14.00
2019-04-23T23:35:22.697Z,14.10
2019-04-23T23:37:56.551Z,14.00
2019-04-23T23:40:20.426Z,14.10
2019-04-23T23:43:05.350Z,14.10
2019-04-23T23:47:59.314Z,14.10
2019-04-23T23:53:11.691Z,14.00
2019-04-23T23:55:19.105Z,14.00
2019-04-23T23:57:56.781Z,14.00
